Crotona Park, New York
Current Conditions -  °F | °C
As of 4:51 AM on Friday 24 Oct 2014 (Local Time) from KLGA Reporting Station
Overcast Overcast  
Wind Chill: 51°   Ceiling: 4900
Heat Index: 51°   Visibility: 10mi
Dew Point: 43°   Wind: 14mph
Humidity: 74%   Direction: 300°WNW
Pressure: 29.78"   Gusts: NA
Location:  40.8446°N, 73.88°W
Report Text: KLGA 240851Z 30012KT 10SM OVC049 11/06 A2978 RMK AO2 SLP084 T01060061 51008
Loading
Personal Weather Stations






























Interactive Weather Map
Tropical Storm Tracking
New forecast layout! Learn more

10-Day Weather Forecast

Advertisements
Track Severe Weather on mobile